createdAt,value
2019-01-14T00:02:46.088Z,8.35
2019-01-14T00:07:55.156Z,8.43
2019-01-14T00:13:04.306Z,9.81
2019-01-14T00:18:13.380Z,8.83
2019-01-14T00:23:23.019Z,9.06
2019-01-14T00:28:32.180Z,8.67
2019-01-14T00:33:41.394Z,9.17
2019-01-14T00:38:50.476Z,8.73
2019-01-14T00:43:59.781Z,8.14
2019-01-14T00:49:08.905Z,9.04
2019-01-14T00:54:18.095Z,8.80
2019-01-14T00:59:27.245Z,8.40
2019-01-14T01:04:36.446Z,8.82
2019-01-14T01:09:45.541Z,9.16
2019-01-14T01:14:55.207Z,8.24
2019-01-14T01:20:07.538Z,7.99
2019-01-14T01:25:06.693Z,8.72
2019-01-14T01:30:15.757Z,8.14
2019-01-14T01:35:25.034Z,7.31
2019-01-14T01:40:34.436Z,6.92
2019-01-14T01:45:43.641Z,6.69
2019-01-14T01:50:52.736Z,8.16
2019-01-14T01:56:01.961Z,7.19
2019-01-14T02:01:11.144Z,7.13
2019-01-14T02:06:20.406Z,7.13
2019-01-14T02:11:29.494Z,6.92
2019-01-14T02:16:38.693Z,6.78
2019-01-14T02:21:48.107Z,7.12
2019-01-14T02:26:57.381Z,7.32
2019-01-14T02:32:06.654Z,6.76
2019-01-14T02:37:15.882Z,6.72
2019-01-14T02:42:24.979Z,6.52
2019-01-14T02:47:34.573Z,6.69
2019-01-14T02:52:43.745Z,6.38
2019-01-14T02:57:53.053Z,5.86
2019-01-14T03:03:02.149Z,6.14
2019-01-14T03:08:11.861Z,6.06
2019-01-14T03:13:20.964Z,5.57
2019-01-14T03:18:30.245Z,5.86
2019-01-14T03:23:39.318Z,5.95
2019-01-14T03:28:48.513Z,5.76
2019-01-14T03:33:57.596Z,7.07
2019-01-14T03:39:06.851Z,5.54
2019-01-14T03:44:15.918Z,4.48
2019-01-14T03:49:25.101Z,5.00
2019-01-14T03:54:34.251Z,5.15
2019-01-14T03:59:43.453Z,4.79
2019-01-14T04:04:52.525Z,5.35
2019-01-14T04:10:01.814Z,5.55
2019-01-14T04:15:10.905Z,4.77
2019-01-14T04:20:20.200Z,4.75
2019-01-14T04:25:29.286Z,4.99
2019-01-14T04:30:38.507Z,4.81
2019-01-14T04:35:47.589Z,4.53
2019-01-14T04:40:56.778Z,4.56
2019-01-14T04:46:05.873Z,4.53
2019-01-14T04:51:14.968Z,4.31
2019-01-14T04:56:24.101Z,4.36
2019-01-14T05:01:34.928Z,4.71
2019-01-14T05:06:33.985Z,4.41
2019-01-14T05:11:43.063Z,4.41
2019-01-14T05:16:52.198Z,4.86
2019-01-14T05:22:01.753Z,4.90
2019-01-14T05:27:10.905Z,4.92
2019-01-14T05:32:20.110Z,5.08
2019-01-14T05:37:29.196Z,5.29
2019-01-14T05:42:38.425Z,5.02
2019-01-14T05:47:47.514Z,5.08
2019-01-14T05:52:56.818Z,6.56
2019-01-14T05:58:05.881Z,5.44
2019-01-14T06:03:15.113Z,5.11
2019-01-14T06:08:24.504Z,4.94
2019-01-14T06:13:33.832Z,5.67
2019-01-14T06:18:42.948Z,5.86
2019-01-14T06:23:52.165Z,5.56
2019-01-14T06:29:01.348Z,6.16
2019-01-14T06:34:10.630Z,5.44
2019-01-14T06:39:19.725Z,6.38
2019-01-14T06:44:28.913Z,5.95
2019-01-14T06:49:38.032Z,5.49
2019-01-14T06:54:47.241Z,5.60
2019-01-14T06:59:56.414Z,5.72
2019-01-14T07:05:05.720Z,5.49
2019-01-14T07:10:14.813Z,5.78
2019-01-14T07:15:24.021Z,7.31
2019-01-14T07:20:33.100Z,5.43
2019-01-14T07:25:42.378Z,5.76
2019-01-14T07:30:51.550Z,5.45
2019-01-14T07:36:00.721Z,5.42
2019-01-14T07:41:10.181Z,4.22
2019-01-14T07:46:19.380Z,4.64
2019-01-14T07:51:28.461Z,5.60
2019-01-14T07:56:38.084Z,4.59
2019-01-14T08:01:47.236Z,5.06
2019-01-14T08:06:56.410Z,4.86
2019-01-14T08:12:05.473Z,4.47
2019-01-14T08:17:15.057Z,3.94
2019-01-14T08:22:24.157Z,4.17
2019-01-14T08:27:33.673Z,4.33
2019-01-14T08:32:42.769Z,4.55
2019-01-14T08:37:52.003Z,4.21
2019-01-14T08:43:01.105Z,4.82
2019-01-14T08:48:10.781Z,4.48
2019-01-14T08:53:19.841Z,4.31
2019-01-14T08:58:29.101Z,4.52
2019-01-14T09:03:38.184Z,4.87
2019-01-14T09:08:47.429Z,4.83
2019-01-14T09:13:56.625Z,4.72
2019-01-14T09:19:05.881Z,4.75
2019-01-14T09:24:14.967Z,4.51
2019-01-14T09:29:24.484Z,4.78
2019-01-14T09:34:33.552Z,4.77
2019-01-14T09:39:42.849Z,4.38
2019-01-14T09:44:51.977Z,5.12
2019-01-14T09:50:01.200Z,4.33
2019-01-14T09:55:10.266Z,4.56
2019-01-14T10:00:19.500Z,4.36
2019-01-14T10:05:28.899Z,4.86
2019-01-14T10:10:38.133Z,5.37
2019-01-14T10:15:47.281Z,4.37
2019-01-14T10:20:56.509Z,4.24
2019-01-14T10:26:05.590Z,4.60
2019-01-14T10:31:14.833Z,4.53
2019-01-14T10:36:23.464Z,3.93
2019-01-14T10:41:32.705Z,3.96
2019-01-14T10:46:42.138Z,4.27
2019-01-14T10:51:51.297Z,4.55
2019-01-14T10:57:00.409Z,4.09
2019-01-14T11:02:09.569Z,3.46
2019-01-14T11:07:18.733Z,3.46
2019-01-14T11:12:28.017Z,3.71
2019-01-14T11:17:37.194Z,3.53
2019-01-14T11:22:46.509Z,3.70
2019-01-14T11:27:55.575Z,3.48
2019-01-14T11:33:05.169Z,3.06
2019-01-14T11:38:14.326Z,3.44
2019-01-14T11:43:23.623Z,3.10
2019-01-14T11:48:33.101Z,3.17
2019-01-14T11:53:42.363Z,2.96
2019-01-14T11:58:51.469Z,2.87
2019-01-14T12:04:00.646Z,3.13
2019-01-14T12:09:12.288Z,3.24
2019-01-14T12:14:18.618Z,3.57
2019-01-14T12:19:27.801Z,3.31
2019-01-14T12:24:36.993Z,3.08
2019-01-14T12:29:46.081Z,3.68
2019-01-14T12:34:55.275Z,3.29
2019-01-14T12:40:04.361Z,3.06
2019-01-14T12:45:13.601Z,3.32
2019-01-14T12:50:22.674Z,3.36
2019-01-14T12:55:32.262Z,3.30
2019-01-14T13:00:41.325Z,3.73
2019-01-14T13:05:50.564Z,3.67
2019-01-14T13:10:59.817Z,3.51
2019-01-14T13:16:09.063Z,3.25
2019-01-14T13:21:18.259Z,3.60
2019-01-14T13:26:27.437Z,3.67
2019-01-14T13:31:36.573Z,4.03
2019-01-14T13:36:45.849Z,4.45
2019-01-14T13:41:55.032Z,3.79
2019-01-14T13:47:04.229Z,3.29
2019-01-14T13:52:13.377Z,3.82
2019-01-14T13:57:22.606Z,3.82
2019-01-14T14:02:32.044Z,3.76
2019-01-14T14:07:41.314Z,3.75
2019-01-14T14:12:50.372Z,3.76
2019-01-14T14:17:59.569Z,3.66
2019-01-14T14:23:08.632Z,3.64
2019-01-14T14:28:17.887Z,4.43
2019-01-14T14:33:27.095Z,4.37
2019-01-14T14:38:36.341Z,4.17
2019-01-14T14:43:45.928Z,4.46
2019-01-14T14:48:55.779Z,4.35
2019-01-14T14:54:04.972Z,4.33
2019-01-14T14:59:14.466Z,4.09
2019-01-14T15:04:23.598Z,4.09
2019-01-14T15:09:33.020Z,3.85
2019-01-14T15:14:40.680Z,4.01
2019-01-14T15:19:49.945Z,4.89
2019-01-14T15:24:59.113Z,4.17
2019-01-14T15:30:08.254Z,4.55
2019-01-14T15:35:17.382Z,5.07
2019-01-14T15:40:26.699Z,4.45
2019-01-14T15:45:35.753Z,4.52
2019-01-14T15:50:44.941Z,4.69
2019-01-14T15:55:54.017Z,4.34
2019-01-14T16:01:03.609Z,4.47
2019-01-14T16:06:12.705Z,4.82
2019-01-14T16:11:21.942Z,4.82
2019-01-14T16:16:31.017Z,5.02
2019-01-14T16:21:40.281Z,4.81
2019-01-14T16:26:49.381Z,4.93
2019-01-14T16:31:58.697Z,5.68
2019-01-14T16:37:07.997Z,5.85
2019-01-14T16:42:17.694Z,4.71
2019-01-14T16:47:26.905Z,4.92
2019-01-14T16:52:36.150Z,5.72
2019-01-14T16:57:45.309Z,4.82
2019-01-14T17:02:54.529Z,5.01
2019-01-14T17:08:03.613Z,4.86
2019-01-14T17:13:12.837Z,5.46
2019-01-14T17:18:22.061Z,4.91
2019-01-14T17:23:31.341Z,5.88
2019-01-14T17:28:40.525Z,5.60
2019-01-14T17:33:49.849Z,5.12
2019-01-14T17:38:58.929Z,5.06
2019-01-14T17:44:08.239Z,4.76
2019-01-14T17:49:17.370Z,5.43
2019-01-14T17:54:26.625Z,5.45
2019-01-14T17:59:35.764Z,4.89
2019-01-14T18:04:45.391Z,5.08
2019-01-14T18:09:54.480Z,4.62
2019-01-14T18:15:03.670Z,4.49
2019-01-14T18:20:12.758Z,5.54
2019-01-14T18:25:22.093Z,4.86
2019-01-14T18:30:31.228Z,4.84
2019-01-14T18:35:40.373Z,4.44
2019-01-14T18:40:49.553Z,4.53
2019-01-14T18:45:58.846Z,4.62
2019-01-14T18:51:08.027Z,5.02
2019-01-14T18:56:17.259Z,4.88
2019-01-14T19:01:26.397Z,5.11
2019-01-14T19:06:35.821Z,5.24
2019-01-14T19:11:44.963Z,4.90
2019-01-14T19:16:54.105Z,5.23
2019-01-14T19:22:03.240Z,5.49
2019-01-14T19:27:16.463Z,5.52
2019-01-14T19:32:21.129Z,5.07
2019-01-14T19:37:30.881Z,4.69
2019-01-14T19:42:40.035Z,4.52
2019-01-14T19:47:49.685Z,5.19
2019-01-14T19:52:58.745Z,5.02
2019-01-14T19:58:07.961Z,6.21
2019-01-14T20:03:17.158Z,6.02
2019-01-14T20:08:26.389Z,6.36
2019-01-14T20:13:35.548Z,5.80
2019-01-14T20:18:45.030Z,7.09
2019-01-14T20:23:53.061Z,6.06
2019-01-14T20:29:02.505Z,5.91
2019-01-14T20:34:11.681Z,5.59
2019-01-14T20:39:20.840Z,6.14
2019-01-14T20:44:29.973Z,5.92
2019-01-14T20:49:39.549Z,6.73
2019-01-14T20:54:48.614Z,6.01
2019-01-14T20:59:58.574Z,6.07
2019-01-14T21:05:07.969Z,6.90
2019-01-14T21:10:17.156Z,5.77
2019-01-14T21:15:26.337Z,5.87
2019-01-14T21:20:35.661Z,5.99
2019-01-14T21:25:44.729Z,5.77
2019-01-14T21:30:54.097Z,6.43
2019-01-14T21:36:03.190Z,5.13
2019-01-14T21:41:12.482Z,5.00
2019-01-14T21:46:21.574Z,5.97
2019-01-14T21:51:31.089Z,5.15
2019-01-14T21:56:40.157Z,5.86
2019-01-14T22:01:49.469Z,5.98
2019-01-14T22:06:58.597Z,5.95
2019-01-14T22:12:07.861Z,5.17
2019-01-14T22:17:17.021Z,5.22
2019-01-14T22:22:26.200Z,5.12
2019-01-14T22:27:35.277Z,5.06
2019-01-14T22:32:44.461Z,5.60
2019-01-14T22:37:53.940Z,5.66
2019-01-14T22:43:04.320Z,4.75
2019-01-14T22:48:11.954Z,5.77
2019-01-14T22:53:21.158Z,5.37
2019-01-14T22:58:30.221Z,6.08
2019-01-14T23:03:39.517Z,5.38
2019-01-14T23:08:48.658Z,5.99
2019-01-14T23:13:57.900Z,5.54
2019-01-14T23:19:07.344Z,5.90
2019-01-14T23:24:16.509Z,5.36
2019-01-14T23:29:25.597Z,5.64
2019-01-14T23:34:34.844Z,5.03
2019-01-14T23:39:43.897Z,5.73
2019-01-14T23:44:53.202Z,5.33
2019-01-14T23:50:00.832Z,5.05
2019-01-14T23:55:10.270Z,5.54
